sensor_id;sensor_type;location;lat;lon;timestamp;P1;durP1;ratioP1;P2;durP2;ratioP2
11653;SDS011;5883;48.818;9.114;2022-12-08T00:01:02;11.63;;;7.37;;
11653;SDS011;5883;48.818;9.114;2022-12-08T00:03:32;11.63;;;7.03;;
11653;SDS011;5883;48.818;9.114;2022-12-08T00:05:58;10.03;;;7.33;;
11653;SDS011;5883;48.818;9.114;2022-12-08T00:08:42;12.90;;;8.27;;
11653;SDS011;5883;48.818;9.114;2022-12-08T00:11:27;14.47;;;8.80;;
11653;SDS011;5883;48.818;9.114;2022-12-08T00:13:54;12.47;;;8.83;;
11653;SDS011;5883;48.818;9.114;2022-12-08T00:16:20;12.13;;;8.03;;
11653;SDS011;5883;48.818;9.114;2022-12-08T00:18:47;12.57;;;7.50;;
11653;SDS011;5883;48.818;9.114;2022-12-08T00:21:13;10.03;;;6.90;;
11653;SDS011;5883;48.818;9.114;2022-12-08T00:23:40;13.23;;;8.40;;
11653;SDS011;5883;48.818;9.114;2022-12-08T00:26:06;11.87;;;7.37;;
11653;SDS011;5883;48.818;9.114;2022-12-08T00:28:34;10.23;;;7.80;;
11653;SDS011;5883;48.818;9.114;2022-12-08T00:31:05;9.02;;;6.68;;
11653;SDS011;5883;48.818;9.114;2022-12-08T00:33:32;9.93;;;6.20;;
11653;SDS011;5883;48.818;9.114;2022-12-08T00:36:03;12.05;;;7.07;;
11653;SDS011;5883;48.818;9.114;2022-12-08T00:38:30;11.07;;;7.53;;
11653;SDS011;5883;48.818;9.114;2022-12-08T00:40:56;9.73;;;7.27;;
11653;SDS011;5883;48.818;9.114;2022-12-08T00:43:22;10.63;;;7.27;;
11653;SDS011;5883;48.818;9.114;2022-12-08T00:45:50;9.97;;;7.20;;
11653;SDS011;5883;48.818;9.114;2022-12-08T00:48:17;8.23;;;7.17;;
11653;SDS011;5883;48.818;9.114;2022-12-08T00:50:43;8.73;;;6.37;;
11653;SDS011;5883;48.818;9.114;2022-12-08T00:53:09;10.63;;;6.97;;
11653;SDS011;5883;48.818;9.114;2022-12-08T00:55:36;9.40;;;6.43;;
11653;SDS011;5883;48.818;9.114;2022-12-08T00:58:02;9.83;;;6.73;;
11653;SDS011;5883;48.818;9.114;2022-12-08T01:00:29;9.87;;;6.70;;
11653;SDS011;5883;48.818;9.114;2022-12-08T01:02:56;9.23;;;6.50;;
11653;SDS011;5883;48.818;9.114;2022-12-08T01:05:23;11.47;;;7.00;;
11653;SDS011;5883;48.818;9.114;2022-12-08T01:07:49;9.03;;;7.13;;
11653;SDS011;5883;48.818;9.114;2022-12-08T01:10:16;9.80;;;7.30;;
11653;SDS011;5883;48.818;9.114;2022-12-08T01:12:42;10.07;;;6.67;;
11653;SDS011;5883;48.818;9.114;2022-12-08T01:15:09;10.27;;;6.80;;
11653;SDS011;5883;48.818;9.114;2022-12-08T01:17:35;10.30;;;7.33;;
11653;SDS011;5883;48.818;9.114;2022-12-08T01:20:04;10.70;;;6.80;;
11653;SDS011;5883;48.818;9.114;2022-12-08T01:22:32;12.77;;;7.43;;
11653;SDS011;5883;48.818;9.114;2022-12-08T01:24:58;9.30;;;6.87;;
11653;SDS011;5883;48.818;9.114;2022-12-08T01:27:25;11.10;;;6.50;;
11653;SDS011;5883;48.818;9.114;2022-12-08T01:29:51;9.73;;;6.73;;
11653;SDS011;5883;48.818;9.114;2022-12-08T01:32:17;11.93;;;7.23;;
11653;SDS011;5883;48.818;9.114;2022-12-08T01:34:44;10.27;;;7.17;;
11653;SDS011;5883;48.818;9.114;2022-12-08T01:37:12;9.67;;;7.07;;
11653;SDS011;5883;48.818;9.114;2022-12-08T01:39:38;8.73;;;6.47;;
11653;SDS011;5883;48.818;9.114;2022-12-08T01:42:05;12.13;;;7.43;;
11653;SDS011;5883;48.818;9.114;2022-12-08T01:44:48;12.20;;;7.37;;
11653;SDS011;5883;48.818;9.114;2022-12-08T01:47:15;10.77;;;7.27;;
11653;SDS011;5883;48.818;9.114;2022-12-08T01:49:41;10.80;;;7.07;;
11653;SDS011;5883;48.818;9.114;2022-12-08T01:52:09;10.30;;;7.80;;
11653;SDS011;5883;48.818;9.114;2022-12-08T01:54:38;9.17;;;6.50;;
11653;SDS011;5883;48.818;9.114;2022-12-08T01:57:07;10.37;;;7.63;;
11653;SDS011;5883;48.818;9.114;2022-12-08T01:59:35;10.57;;;6.83;;
11653;SDS011;5883;48.818;9.114;2022-12-08T02:02:02;8.40;;;5.97;;
11653;SDS011;5883;48.818;9.114;2022-12-08T02:04:29;9.73;;;6.47;;
11653;SDS011;5883;48.818;9.114;2022-12-08T02:06:55;11.00;;;6.20;;
11653;SDS011;5883;48.818;9.114;2022-12-08T02:09:23;8.97;;;6.43;;
11653;SDS011;5883;48.818;9.114;2022-12-08T02:11:50;9.67;;;6.37;;
11653;SDS011;5883;48.818;9.114;2022-12-08T02:14:18;9.33;;;6.70;;
11653;SDS011;5883;48.818;9.114;2022-12-08T02:16:48;10.30;;;7.43;;
11653;SDS011;5883;48.818;9.114;2022-12-08T02:19:33;9.47;;;6.83;;
11653;SDS011;5883;48.818;9.114;2022-12-08T02:22:03;10.00;;;6.57;;
11653;SDS011;5883;48.818;9.114;2022-12-08T02:24:34;8.70;;;6.37;;
11653;SDS011;5883;48.818;9.114;2022-12-08T02:27:19;12.00;;;6.90;;
11653;SDS011;5883;48.818;9.114;2022-12-08T02:29:55;9.47;;;6.37;;
11653;SDS011;5883;48.818;9.114;2022-12-08T02:32:32;8.93;;;6.33;;
11653;SDS011;5883;48.818;9.114;2022-12-08T02:35:07;12.50;;;6.47;;
11653;SDS011;5883;48.818;9.114;2022-12-08T02:37:38;7.67;;;6.03;;
11653;SDS011;5883;48.818;9.114;2022-12-08T02:40:07;8.40;;;5.70;;
11653;SDS011;5883;48.818;9.114;2022-12-08T02:42:37;8.17;;;6.13;;
11653;SDS011;5883;48.818;9.114;2022-12-08T02:45:05;8.63;;;5.43;;
11653;SDS011;5883;48.818;9.114;2022-12-08T02:47:34;9.37;;;5.77;;
11653;SDS011;5883;48.818;9.114;2022-12-08T02:50:01;12.23;;;6.97;;
11653;SDS011;5883;48.818;9.114;2022-12-08T02:52:39;8.23;;;5.83;;
11653;SDS011;5883;48.818;9.114;2022-12-08T02:55:06;8.03;;;5.60;;
11653;SDS011;5883;48.818;9.114;2022-12-08T02:57:36;10.03;;;6.60;;
11653;SDS011;5883;48.818;9.114;2022-12-08T03:00:05;12.33;;;6.43;;
11653;SDS011;5883;48.818;9.114;2022-12-08T03:02:42;12.10;;;7.07;;
11653;SDS011;5883;48.818;9.114;2022-12-08T03:05:13;11.40;;;6.70;;
11653;SDS011;5883;48.818;9.114;2022-12-08T03:07:43;9.50;;;6.40;;
11653;SDS011;5883;48.818;9.114;2022-12-08T03:10:12;8.53;;;6.60;;
11653;SDS011;5883;48.818;9.114;2022-12-08T03:12:41;10.70;;;7.00;;
11653;SDS011;5883;48.818;9.114;2022-12-08T03:15:09;9.37;;;6.70;;
11653;SDS011;5883;48.818;9.114;2022-12-08T03:17:37;10.37;;;6.57;;
11653;SDS011;5883;48.818;9.114;2022-12-08T03:20:07;10.10;;;6.83;;
11653;SDS011;5883;48.818;9.114;2022-12-08T03:22:36;9.40;;;6.80;;
11653;SDS011;5883;48.818;9.114;2022-12-08T03:25:05;10.53;;;6.53;;
11653;SDS011;5883;48.818;9.114;2022-12-08T03:27:32;12.07;;;6.97;;
11653;SDS011;5883;48.818;9.114;2022-12-08T03:29:59;8.30;;;6.50;;
11653;SDS011;5883;48.818;9.114;2022-12-08T03:32:27;10.50;;;6.90;;
11653;SDS011;5883;48.818;9.114;2022-12-08T03:34:55;7.13;;;5.63;;
11653;SDS011;5883;48.818;9.114;2022-12-08T03:37:22;9.90;;;6.40;;
11653;SDS011;5883;48.818;9.114;2022-12-08T03:39:49;9.20;;;6.63;;
11653;SDS011;5883;48.818;9.114;2022-12-08T03:42:17;9.40;;;6.27;;
11653;SDS011;5883;48.818;9.114;2022-12-08T03:44:43;9.87;;;6.50;;
11653;SDS011;5883;48.818;9.114;2022-12-08T03:47:09;10.70;;;6.90;;
11653;SDS011;5883;48.818;9.114;2022-12-08T03:49:36;9.60;;;6.23;;
11653;SDS011;5883;48.818;9.114;2022-12-08T03:52:02;8.80;;;5.90;;
11653;SDS011;5883;48.818;9.114;2022-12-08T03:54:29;10.03;;;6.67;;
11653;SDS011;5883;48.818;9.114;2022-12-08T03:56:55;8.43;;;6.03;;
11653;SDS011;5883;48.818;9.114;2022-12-08T03:59:23;10.33;;;6.60;;
11653;SDS011;5883;48.818;9.114;2022-12-08T04:01:49;7.20;;;5.67;;
11653;SDS011;5883;48.818;9.114;2022-12-08T04:04:16;8.77;;;5.90;;
11653;SDS011;5883;48.818;9.114;2022-12-08T04:06:43;8.33;;;5.93;;
11653;SDS011;5883;48.818;9.114;2022-12-08T04:09:09;6.83;;;5.00;;
11653;SDS011;5883;48.818;9.114;2022-12-08T04:11:35;8.00;;;5.53;;
11653;SDS011;5883;48.818;9.114;2022-12-08T04:14:02;9.00;;;5.73;;
11653;SDS011;5883;48.818;9.114;2022-12-08T04:16:30;7.83;;;5.50;;
11653;SDS011;5883;48.818;9.114;2022-12-08T04:18:56;11.73;;;6.30;;
11653;SDS011;5883;48.818;9.114;2022-12-08T04:21:22;8.73;;;5.27;;
11653;SDS011;5883;48.818;9.114;2022-12-08T04:23:49;7.60;;;5.50;;
11653;SDS011;5883;48.818;9.114;2022-12-08T04:26:15;7.63;;;5.33;;
11653;SDS011;5883;48.818;9.114;2022-12-08T04:28:42;6.80;;;5.30;;
11653;SDS011;5883;48.818;9.114;2022-12-08T04:31:08;7.70;;;4.90;;
11653;SDS011;5883;48.818;9.114;2022-12-08T04:33:36;7.93;;;5.43;;
11653;SDS011;5883;48.818;9.114;2022-12-08T04:36:03;9.53;;;5.10;;
11653;SDS011;5883;48.818;9.114;2022-12-08T04:38:30;6.60;;;5.13;;
11653;SDS011;5883;48.818;9.114;2022-12-08T04:40:56;7.57;;;5.30;;
11653;SDS011;5883;48.818;9.114;2022-12-08T04:43:23;8.57;;;5.83;;
11653;SDS011;5883;48.818;9.114;2022-12-08T04:45:50;6.80;;;5.13;;
11653;SDS011;5883;48.818;9.114;2022-12-08T04:48:17;8.00;;;5.17;;
11653;SDS011;5883;48.818;9.114;2022-12-08T04:50:44;7.70;;;5.37;;
11653;SDS011;5883;48.818;9.114;2022-12-08T04:53:11;7.57;;;5.47;;
11653;SDS011;5883;48.818;9.114;2022-12-08T04:55:38;7.07;;;4.90;;
11653;SDS011;5883;48.818;9.114;2022-12-08T04:58:05;8.53;;;5.50;;
11653;SDS011;5883;48.818;9.114;2022-12-08T05:00:31;9.23;;;5.50;;
11653;SDS011;5883;48.818;9.114;2022-12-08T05:02:58;9.23;;;5.87;;
11653;SDS011;5883;48.818;9.114;2022-12-08T05:05:24;9.33;;;6.30;;
11653;SDS011;5883;48.818;9.114;2022-12-08T05:07:53;7.50;;;5.63;;
11653;SDS011;5883;48.818;9.114;2022-12-08T05:10:19;8.47;;;5.43;;
11653;SDS011;5883;48.818;9.114;2022-12-08T05:12:46;7.83;;;5.53;;
11653;SDS011;5883;48.818;9.114;2022-12-08T05:15:12;8.53;;;6.03;;
11653;SDS011;5883;48.818;9.114;2022-12-08T05:17:39;7.03;;;5.07;;
11653;SDS011;5883;48.818;9.114;2022-12-08T05:20:06;7.53;;;5.33;;
11653;SDS011;5883;48.818;9.114;2022-12-08T05:22:32;8.80;;;5.50;;
11653;SDS011;5883;48.818;9.114;2022-12-08T05:25:00;9.20;;;5.97;;
11653;SDS011;5883;48.818;9.114;2022-12-08T05:27:26;13.23;;;6.53;;
11653;SDS011;5883;48.818;9.114;2022-12-08T05:29:53;7.50;;;5.87;;
11653;SDS011;5883;48.818;9.114;2022-12-08T05:32:19;8.70;;;5.77;;
11653;SDS011;5883;48.818;9.114;2022-12-08T05:34:46;11.63;;;6.50;;
11653;SDS011;5883;48.818;9.114;2022-12-08T05:37:12;8.77;;;5.87;;
11653;SDS011;5883;48.818;9.114;2022-12-08T05:39:39;9.57;;;6.90;;
11653;SDS011;5883;48.818;9.114;2022-12-08T05:42:07;10.10;;;5.97;;
11653;SDS011;5883;48.818;9.114;2022-12-08T05:44:34;8.70;;;6.10;;
11653;SDS011;5883;48.818;9.114;2022-12-08T05:47:00;9.47;;;6.23;;
11653;SDS011;5883;48.818;9.114;2022-12-08T05:49:27;10.00;;;6.20;;
11653;SDS011;5883;48.818;9.114;2022-12-08T05:51:54;9.10;;;6.10;;
11653;SDS011;5883;48.818;9.114;2022-12-08T05:54:20;7.70;;;5.60;;
11653;SDS011;5883;48.818;9.114;2022-12-08T05:56:48;9.87;;;6.20;;
11653;SDS011;5883;48.818;9.114;2022-12-08T05:59:15;8.90;;;6.00;;
11653;SDS011;5883;48.818;9.114;2022-12-08T06:01:42;7.63;;;5.53;;
11653;SDS011;5883;48.818;9.114;2022-12-08T06:04:09;6.23;;;4.70;;
11653;SDS011;5883;48.818;9.114;2022-12-08T06:06:35;7.07;;;5.60;;
11653;SDS011;5883;48.818;9.114;2022-12-08T06:09:03;8.10;;;5.10;;
11653;SDS011;5883;48.818;9.114;2022-12-08T06:11:30;7.10;;;5.27;;
11653;SDS011;5883;48.818;9.114;2022-12-08T06:13:57;7.87;;;5.20;;
11653;SDS011;5883;48.818;9.114;2022-12-08T06:16:25;7.93;;;5.50;;
11653;SDS011;5883;48.818;9.114;2022-12-08T06:18:52;8.13;;;5.00;;
11653;SDS011;5883;48.818;9.114;2022-12-08T06:21:18;7.70;;;5.70;;
11653;SDS011;5883;48.818;9.114;2022-12-08T06:23:46;8.20;;;5.43;;
11653;SDS011;5883;48.818;9.114;2022-12-08T06:26:13;7.13;;;5.37;;
11653;SDS011;5883;48.818;9.114;2022-12-08T06:28:40;6.00;;;4.77;;
11653;SDS011;5883;48.818;9.114;2022-12-08T06:31:07;6.27;;;4.90;;
11653;SDS011;5883;48.818;9.114;2022-12-08T06:33:36;8.23;;;5.63;;
11653;SDS011;5883;48.818;9.114;2022-12-08T06:36:03;9.00;;;4.67;;
11653;SDS011;5883;48.818;9.114;2022-12-08T06:38:29;6.90;;;4.40;;
11653;SDS011;5883;48.818;9.114;2022-12-08T06:40:57;8.63;;;5.50;;
11653;SDS011;5883;48.818;9.114;2022-12-08T06:43:23;7.80;;;5.37;;
11653;SDS011;5883;48.818;9.114;2022-12-08T06:45:51;8.53;;;5.37;;
11653;SDS011;5883;48.818;9.114;2022-12-08T06:48:18;7.13;;;5.07;;
11653;SDS011;5883;48.818;9.114;2022-12-08T06:50:46;7.73;;;5.33;;
11653;SDS011;5883;48.818;9.114;2022-12-08T06:53:12;7.57;;;5.60;;
11653;SDS011;5883;48.818;9.114;2022-12-08T06:55:41;8.77;;;4.70;;
11653;SDS011;5883;48.818;9.114;2022-12-08T06:58:08;7.33;;;4.83;;
11653;SDS011;5883;48.818;9.114;2022-12-08T07:00:34;6.77;;;4.73;;
11653;SDS011;5883;48.818;9.114;2022-12-08T07:03:00;7.30;;;4.67;;
11653;SDS011;5883;48.818;9.114;2022-12-08T07:05:27;7.13;;;5.07;;
11653;SDS011;5883;48.818;9.114;2022-12-08T07:07:55;7.30;;;4.77;;
11653;SDS011;5883;48.818;9.114;2022-12-08T07:10:22;6.43;;;4.37;;
11653;SDS011;5883;48.818;9.114;2022-12-08T07:12:48;9.73;;;5.13;;
11653;SDS011;5883;48.818;9.114;2022-12-08T07:15:15;8.43;;;5.20;;
11653;SDS011;5883;48.818;9.114;2022-12-08T07:17:41;5.77;;;4.50;;
11653;SDS011;5883;48.818;9.114;2022-12-08T07:20:07;7.43;;;5.20;;
11653;SDS011;5883;48.818;9.114;2022-12-08T07:22:34;7.13;;;4.83;;
11653;SDS011;5883;48.818;9.114;2022-12-08T07:25:02;7.30;;;5.10;;
11653;SDS011;5883;48.818;9.114;2022-12-08T07:27:28;7.93;;;5.40;;
11653;SDS011;5883;48.818;9.114;2022-12-08T07:29:55;9.10;;;5.97;;
11653;SDS011;5883;48.818;9.114;2022-12-08T07:32:21;9.70;;;5.30;;
11653;SDS011;5883;48.818;9.114;2022-12-08T07:34:48;8.73;;;5.37;;
11653;SDS011;5883;48.818;9.114;2022-12-08T07:37:14;6.80;;;5.17;;
11653;SDS011;5883;48.818;9.114;2022-12-08T07:39:40;9.77;;;5.70;;
11653;SDS011;5883;48.818;9.114;2022-12-08T07:42:08;8.33;;;6.30;;
11653;SDS011;5883;48.818;9.114;2022-12-08T07:44:35;9.50;;;6.30;;
11653;SDS011;5883;48.818;9.114;2022-12-08T07:47:01;9.13;;;6.47;;
11653;SDS011;5883;48.818;9.114;2022-12-08T07:49:27;12.87;;;7.47;;
11653;SDS011;5883;48.818;9.114;2022-12-08T07:51:54;11.00;;;6.10;;
11653;SDS011;5883;48.818;9.114;2022-12-08T07:54:20;10.70;;;5.33;;
11653;SDS011;5883;48.818;9.114;2022-12-08T07:56:47;9.23;;;5.10;;
11653;SDS011;5883;48.818;9.114;2022-12-08T07:59:14;7.60;;;5.53;;
11653;SDS011;5883;48.818;9.114;2022-12-08T08:01:41;12.60;;;6.30;;
11653;SDS011;5883;48.818;9.114;2022-12-08T08:04:08;10.60;;;6.03;;
11653;SDS011;5883;48.818;9.114;2022-12-08T08:06:35;15.30;;;6.27;;
11653;SDS011;5883;48.818;9.114;2022-12-08T08:09:02;12.67;;;6.20;;
11653;SDS011;5883;48.818;9.114;2022-12-08T08:11:28;11.73;;;6.63;;
11653;SDS011;5883;48.818;9.114;2022-12-08T08:13:55;13.60;;;6.73;;
11653;SDS011;5883;48.818;9.114;2022-12-08T08:16:23;8.27;;;6.10;;
11653;SDS011;5883;48.818;9.114;2022-12-08T08:18:50;8.27;;;5.90;;
11653;SDS011;5883;48.818;9.114;2022-12-08T08:21:17;13.23;;;5.63;;
11653;SDS011;5883;48.818;9.114;2022-12-08T08:23:43;8.03;;;6.23;;
11653;SDS011;5883;48.818;9.114;2022-12-08T08:26:10;8.00;;;5.73;;
11653;SDS011;5883;48.818;9.114;2022-12-08T08:28:36;12.07;;;6.47;;
11653;SDS011;5883;48.818;9.114;2022-12-08T08:31:03;9.70;;;6.30;;
11653;SDS011;5883;48.818;9.114;2022-12-08T08:33:31;7.63;;;6.20;;
11653;SDS011;5883;48.818;9.114;2022-12-08T08:35:58;8.93;;;6.17;;
11653;SDS011;5883;48.818;9.114;2022-12-08T08:38:24;10.47;;;6.50;;
11653;SDS011;5883;48.818;9.114;2022-12-08T08:40:51;8.73;;;6.50;;
11653;SDS011;5883;48.818;9.114;2022-12-08T08:43:18;7.23;;;5.73;;
11653;SDS011;5883;48.818;9.114;2022-12-08T08:45:56;8.43;;;5.97;;
11653;SDS011;5883;48.818;9.114;2022-12-08T08:48:24;8.37;;;5.73;;
11653;SDS011;5883;48.818;9.114;2022-12-08T08:50:52;9.57;;;5.63;;
11653;SDS011;5883;48.818;9.114;2022-12-08T08:53:18;8.00;;;6.03;;
11653;SDS011;5883;48.818;9.114;2022-12-08T08:55:45;10.63;;;6.60;;
11653;SDS011;5883;48.818;9.114;2022-12-08T08:58:12;10.53;;;6.17;;
11653;SDS011;5883;48.818;9.114;2022-12-08T09:00:38;9.97;;;6.77;;
11653;SDS011;5883;48.818;9.114;2022-12-08T09:03:05;9.77;;;6.77;;
11653;SDS011;5883;48.818;9.114;2022-12-08T09:05:31;9.00;;;6.07;;
11653;SDS011;5883;48.818;9.114;2022-12-08T09:07:59;11.03;;;6.70;;
11653;SDS011;5883;48.818;9.114;2022-12-08T09:10:26;10.87;;;7.73;;
11653;SDS011;5883;48.818;9.114;2022-12-08T09:12:52;13.70;;;8.53;;
11653;SDS011;5883;48.818;9.114;2022-12-08T09:15:19;15.00;;;8.80;;
11653;SDS011;5883;48.818;9.114;2022-12-08T09:17:45;17.17;;;9.37;;
11653;SDS011;5883;48.818;9.114;2022-12-08T09:20:12;21.95;;;8.57;;
11653;SDS011;5883;48.818;9.114;2022-12-08T09:22:38;14.23;;;6.63;;
11653;SDS011;5883;48.818;9.114;2022-12-08T09:25:06;12.68;;;6.10;;
11653;SDS011;5883;48.818;9.114;2022-12-08T09:27:33;33.53;;;6.63;;
11653;SDS011;5883;48.818;9.114;2022-12-08T09:29:59;17.50;;;5.88;;
11653;SDS011;5883;48.818;9.114;2022-12-08T09:32:43;10.52;;;6.38;;
11653;SDS011;5883;48.818;9.114;2022-12-08T09:35:10;15.02;;;5.40;;
11653;SDS011;5883;48.818;9.114;2022-12-08T09:37:36;9.73;;;5.78;;
11653;SDS011;5883;48.818;9.114;2022-12-08T09:40:03;7.28;;;4.70;;
11653;SDS011;5883;48.818;9.114;2022-12-08T09:42:32;11.65;;;5.05;;
11653;SDS011;5883;48.818;9.114;2022-12-08T09:45:02;6.15;;;4.72;;
11653;SDS011;5883;48.818;9.114;2022-12-08T09:47:30;7.70;;;5.13;;
11653;SDS011;5883;48.818;9.114;2022-12-08T09:50:00;7.97;;;5.35;;
11653;SDS011;5883;48.818;9.114;2022-12-08T09:52:29;7.43;;;4.85;;
11653;SDS011;5883;48.818;9.114;2022-12-08T09:54:58;7.40;;;4.80;;
11653;SDS011;5883;48.818;9.114;2022-12-08T09:57:25;13.45;;;5.35;;
11653;SDS011;5883;48.818;9.114;2022-12-08T09:59:52;6.07;;;4.90;;
11653;SDS011;5883;48.818;9.114;2022-12-08T10:02:20;7.10;;;5.13;;
11653;SDS011;5883;48.818;9.114;2022-12-08T10:04:48;7.43;;;5.22;;
11653;SDS011;5883;48.818;9.114;2022-12-08T10:07:21;6.60;;;4.43;;
11653;SDS011;5883;48.818;9.114;2022-12-08T10:09:51;7.68;;;5.32;;
11653;SDS011;5883;48.818;9.114;2022-12-08T10:12:24;7.78;;;5.38;;
11653;SDS011;5883;48.818;9.114;2022-12-08T10:14:52;9.32;;;5.10;;
11653;SDS011;5883;48.818;9.114;2022-12-08T10:17:23;9.68;;;5.22;;
11653;SDS011;5883;48.818;9.114;2022-12-08T10:19:52;6.43;;;4.95;;
11653;SDS011;5883;48.818;9.114;2022-12-08T10:22:26;7.15;;;4.90;;
11653;SDS011;5883;48.818;9.114;2022-12-08T10:24:56;7.60;;;4.45;;
11653;SDS011;5883;48.818;9.114;2022-12-08T10:27:25;6.28;;;4.70;;
11653;SDS011;5883;48.818;9.114;2022-12-08T10:29:52;8.30;;;4.80;;
11653;SDS011;5883;48.818;9.114;2022-12-08T10:32:19;7.43;;;4.38;;
11653;SDS011;5883;48.818;9.114;2022-12-08T10:35:02;5.15;;;4.35;;
11653;SDS011;5883;48.818;9.114;2022-12-08T10:37:31;4.68;;;3.80;;
11653;SDS011;5883;48.818;9.114;2022-12-08T10:39:58;5.38;;;4.30;;
11653;SDS011;5883;48.818;9.114;2022-12-08T10:42:27;4.65;;;3.60;;
11653;SDS011;5883;48.818;9.114;2022-12-08T10:44:59;5.07;;;3.83;;
11653;SDS011;5883;48.818;9.114;2022-12-08T10:47:28;4.60;;;3.65;;
11653;SDS011;5883;48.818;9.114;2022-12-08T10:50:05;6.35;;;3.90;;
11653;SDS011;5883;48.818;9.114;2022-12-08T10:52:33;7.45;;;4.35;;
11653;SDS011;5883;48.818;9.114;2022-12-08T10:55:02;4.97;;;3.78;;
11653;SDS011;5883;48.818;9.114;2022-12-08T10:57:29;7.00;;;4.30;;
11653;SDS011;5883;48.818;9.114;2022-12-08T10:59:55;5.43;;;4.47;;
11653;SDS011;5883;48.818;9.114;2022-12-08T11:02:22;6.55;;;5.05;;
11653;SDS011;5883;48.818;9.114;2022-12-08T11:04:53;7.20;;;5.95;;
11653;SDS011;5883;48.818;9.114;2022-12-08T11:07:23;5.95;;;3.85;;
11653;SDS011;5883;48.818;9.114;2022-12-08T11:09:53;5.47;;;3.92;;
11653;SDS011;5883;48.818;9.114;2022-12-08T11:12:22;11.10;;;4.55;;
11653;SDS011;5883;48.818;9.114;2022-12-08T11:14:53;5.88;;;4.05;;
11653;SDS011;5883;48.818;9.114;2022-12-08T11:17:23;6.15;;;3.83;;
11653;SDS011;5883;48.818;9.114;2022-12-08T11:19:54;4.38;;;3.42;;
11653;SDS011;5883;48.818;9.114;2022-12-08T11:22:22;5.95;;;4.30;;
11653;SDS011;5883;48.818;9.114;2022-12-08T11:25:00;4.97;;;3.63;;
11653;SDS011;5883;48.818;9.114;2022-12-08T11:27:27;5.07;;;4.03;;
11653;SDS011;5883;48.818;9.114;2022-12-08T11:29:53;6.50;;;4.53;;
11653;SDS011;5883;48.818;9.114;2022-12-08T11:32:20;6.78;;;4.07;;
11653;SDS011;5883;48.818;9.114;2022-12-08T11:34:48;5.22;;;4.22;;
11653;SDS011;5883;48.818;9.114;2022-12-08T11:37:17;6.03;;;4.70;;
11653;SDS011;5883;48.818;9.114;2022-12-08T11:39:46;5.00;;;3.67;;
11653;SDS011;5883;48.818;9.114;2022-12-08T11:42:15;6.57;;;4.70;;
11653;SDS011;5883;48.818;9.114;2022-12-08T11:44:44;6.18;;;4.43;;
11653;SDS011;5883;48.818;9.114;2022-12-08T11:47:14;4.97;;;3.92;;
11653;SDS011;5883;48.818;9.114;2022-12-08T11:49:42;4.70;;;4.13;;
11653;SDS011;5883;48.818;9.114;2022-12-08T11:52:13;6.28;;;4.50;;
11653;SDS011;5883;48.818;9.114;2022-12-08T11:54:44;6.70;;;3.75;;
11653;SDS011;5883;48.818;9.114;2022-12-08T11:57:13;7.25;;;4.78;;
11653;SDS011;5883;48.818;9.114;2022-12-08T11:59:46;9.80;;;4.70;;
11653;SDS011;5883;48.818;9.114;2022-12-08T12:02:15;7.75;;;4.07;;
11653;SDS011;5883;48.818;9.114;2022-12-08T12:04:43;8.52;;;5.47;;
11653;SDS011;5883;48.818;9.114;2022-12-08T12:07:22;6.38;;;4.95;;
11653;SDS011;5883;48.818;9.114;2022-12-08T12:12:38;4.43;;;3.90;;
11653;SDS011;5883;48.818;9.114;2022-12-08T12:15:19;7.38;;;4.82;;
11653;SDS011;5883;48.818;9.114;2022-12-08T12:17:50;5.45;;;4.82;;
11653;SDS011;5883;48.818;9.114;2022-12-08T12:20:18;7.07;;;4.65;;
11653;SDS011;5883;48.818;9.114;2022-12-08T12:22:47;13.07;;;5.20;;
11653;SDS011;5883;48.818;9.114;2022-12-08T12:25:16;8.13;;;4.45;;
11653;SDS011;5883;48.818;9.114;2022-12-08T12:27:45;15.00;;;5.35;;
11653;SDS011;5883;48.818;9.114;2022-12-08T12:30:19;9.70;;;4.70;;
11653;SDS011;5883;48.818;9.114;2022-12-08T12:32:47;5.78;;;4.50;;
11653;SDS011;5883;48.818;9.114;2022-12-08T12:35:19;6.55;;;4.63;;
11653;SDS011;5883;48.818;9.114;2022-12-08T12:37:46;5.32;;;4.50;;
11653;SDS011;5883;48.818;9.114;2022-12-08T12:40:15;6.75;;;4.32;;
11653;SDS011;5883;48.818;9.114;2022-12-08T12:42:42;5.28;;;4.20;;
11653;SDS011;5883;48.818;9.114;2022-12-08T12:45:11;6.22;;;4.20;;
11653;SDS011;5883;48.818;9.114;2022-12-08T12:47:49;5.35;;;4.32;;
11653;SDS011;5883;48.818;9.114;2022-12-08T12:50:35;6.35;;;4.70;;
11653;SDS011;5883;48.818;9.114;2022-12-08T12:53:03;5.22;;;3.97;;
11653;SDS011;5883;48.818;9.114;2022-12-08T12:58:19;5.32;;;4.13;;
11653;SDS011;5883;48.818;9.114;2022-12-08T13:00:45;6.78;;;4.85;;
11653;SDS011;5883;48.818;9.114;2022-12-08T13:03:16;6.13;;;4.47;;
11653;SDS011;5883;48.818;9.114;2022-12-08T13:05:46;6.78;;;4.63;;
11653;SDS011;5883;48.818;9.114;2022-12-08T13:08:15;5.75;;;4.43;;
11653;SDS011;5883;48.818;9.114;2022-12-08T13:10:46;6.80;;;4.57;;
11653;SDS011;5883;48.818;9.114;2022-12-08T13:13:15;5.75;;;4.50;;
11653;SDS011;5883;48.818;9.114;2022-12-08T13:15:47;6.10;;;4.30;;
11653;SDS011;5883;48.818;9.114;2022-12-08T13:18:17;5.65;;;4.55;;
11653;SDS011;5883;48.818;9.114;2022-12-08T13:20:45;4.97;;;4.47;;
11653;SDS011;5883;48.818;9.114;2022-12-08T13:23:26;8.15;;;4.88;;
11653;SDS011;5883;48.818;9.114;2022-12-08T13:26:08;5.85;;;4.78;;
11653;SDS011;5883;48.818;9.114;2022-12-08T13:33:59;5.35;;;4.55;;
11653;SDS011;5883;48.818;9.114;2022-12-08T13:36:26;8.65;;;4.35;;
11653;SDS011;5883;48.818;9.114;2022-12-08T13:38:55;7.28;;;5.22;;
11653;SDS011;5883;48.818;9.114;2022-12-08T13:41:23;9.23;;;4.90;;
11653;SDS011;5883;48.818;9.114;2022-12-08T13:43:54;7.75;;;5.60;;
11653;SDS011;5883;48.818;9.114;2022-12-08T13:46:27;11.50;;;5.20;;
11653;SDS011;5883;48.818;9.114;2022-12-08T13:48:54;7.45;;;5.47;;
11653;SDS011;5883;48.818;9.114;2022-12-08T13:51:24;6.45;;;5.22;;
11653;SDS011;5883;48.818;9.114;2022-12-08T13:53:57;6.75;;;5.20;;
11653;SDS011;5883;48.818;9.114;2022-12-08T13:56:25;7.93;;;5.35;;
11653;SDS011;5883;48.818;9.114;2022-12-08T13:58:57;7.93;;;4.93;;
11653;SDS011;5883;48.818;9.114;2022-12-08T14:01:31;6.03;;;5.10;;
11653;SDS011;5883;48.818;9.114;2022-12-08T14:04:01;7.60;;;5.38;;
11653;SDS011;5883;48.818;9.114;2022-12-08T14:06:29;6.10;;;5.00;;
11653;SDS011;5883;48.818;9.114;2022-12-08T14:08:57;6.45;;;4.38;;
11653;SDS011;5883;48.818;9.114;2022-12-08T14:11:26;5.65;;;4.95;;
11653;SDS011;5883;48.818;9.114;2022-12-08T14:14:00;9.75;;;4.75;;
11653;SDS011;5883;48.818;9.114;2022-12-08T14:16:27;6.60;;;4.55;;
11653;SDS011;5883;48.818;9.114;2022-12-08T14:18:54;5.93;;;4.53;;
11653;SDS011;5883;48.818;9.114;2022-12-08T14:21:20;6.32;;;4.78;;
11653;SDS011;5883;48.818;9.114;2022-12-08T14:23:48;5.22;;;4.25;;
11653;SDS011;5883;48.818;9.114;2022-12-08T14:26:15;5.18;;;4.00;;
11653;SDS011;5883;48.818;9.114;2022-12-08T14:28:41;6.30;;;3.97;;
11653;SDS011;5883;48.818;9.114;2022-12-08T14:31:08;7.50;;;4.20;;
11653;SDS011;5883;48.818;9.114;2022-12-08T14:33:37;15.52;;;5.18;;
11653;SDS011;5883;48.818;9.114;2022-12-08T14:36:07;12.40;;;4.93;;
11653;SDS011;5883;48.818;9.114;2022-12-08T14:38:34;9.05;;;4.07;;
11653;SDS011;5883;48.818;9.114;2022-12-08T14:41:02;8.65;;;4.05;;
11653;SDS011;5883;48.818;9.114;2022-12-08T14:43:30;11.13;;;4.47;;
11653;SDS011;5883;48.818;9.114;2022-12-08T14:45:58;6.15;;;4.28;;
11653;SDS011;5883;48.818;9.114;2022-12-08T14:48:26;5.65;;;4.88;;
11653;SDS011;5883;48.818;9.114;2022-12-08T14:50:54;5.38;;;4.30;;
11653;SDS011;5883;48.818;9.114;2022-12-08T14:53:22;6.63;;;4.85;;
11653;SDS011;5883;48.818;9.114;2022-12-08T14:55:49;6.20;;;5.32;;
11653;SDS011;5883;48.818;9.114;2022-12-08T14:58:18;7.85;;;5.18;;
11653;SDS011;5883;48.818;9.114;2022-12-08T15:00:47;7.60;;;4.53;;
11653;SDS011;5883;48.818;9.114;2022-12-08T15:03:15;5.05;;;4.25;;
11653;SDS011;5883;48.818;9.114;2022-12-08T15:05:42;8.40;;;5.30;;
11653;SDS011;5883;48.818;9.114;2022-12-08T15:08:09;4.88;;;4.35;;
11653;SDS011;5883;48.818;9.114;2022-12-08T15:10:37;6.85;;;4.30;;
11653;SDS011;5883;48.818;9.114;2022-12-08T15:13:05;8.55;;;4.80;;
11653;SDS011;5883;48.818;9.114;2022-12-08T15:15:45;6.47;;;4.68;;